Time;durP1;ratioP1;P1;durP2;ratioP2;P2;SDS_P1;SDS_P2;PMS_P1;PMS_P2;Temp;Humidity;BMP_temperature;BMP_pressure;BME280_temperature;BME280_humidity;BME280_pressure;Samples;Min_cycle;Max_cycle;Signal;HPM_P1;HPM_P2
2022/12/18 00:01:20;;;;;;;93.68;33.03;;;;;;;;;;5081879;27;20159;-74
2022/12/18 00:03:46;;;;;;;121.15;38.72;;;;;;;;;;5092795;27;20754;-73
2022/12/18 00:06:13;;;;;;;129.52;44.65;;;;;;;;;;5080785;27;20039;-74
2022/12/18 00:08:40;;;;;;;129.23;45.00;;;;;;;;;;5095323;27;20074;-74
2022/12/18 00:11:07;;;;;;;112.25;39.20;;;;;;;;;;5079486;27;20078;-74
2022/12/18 00:13:33;;;;;;;87.75;29.95;;;;;;;;;;5094176;27;20138;-73
2022/12/18 00:16:06;;;;;;;124.47;44.22;;;;;;;;;;5112480;27;20038;-73
2022/12/18 00:18:32;;;;;;;131.05;41.70;;;;;;;;;;5098529;27;20068;-74
2022/12/18 00:21:06;;;;;;;89.40;29.42;;;;;;;;;;5084619;27;20096;-74
2022/12/18 00:23:32;;;;;;;130.02;41.60;;;;;;;;;;5098171;27;20955;-73
2022/12/18 00:26:02;;;;;;;86.05;29.92;;;;;;;;;;5097103;27;20050;-73
2022/12/18 00:28:28;;;;;;;125.90;39.33;;;;;;;;;;5082737;27;20554;-73
2022/12/18 00:31:21;;;;;;;91.65;30.90;;;;;;;;;;5094435;27;20047;-73
2022/12/18 00:33:47;;;;;;;128.10;41.05;;;;;;;;;;5095439;27;20061;-73
2022/12/18 00:36:15;;;;;;;113.78;36.28;;;;;;;;;;5095804;27;20051;-73
2022/12/18 00:38:42;;;;;;;92.30;31.25;;;;;;;;;;5115971;27;20053;-74
2022/12/18 00:41:08;;;;;;;92.45;32.35;;;;;;;;;;5098213;27;20184;-73
2022/12/18 00:43:35;;;;;;;102.55;33.65;;;;;;;;;;5116145;27;20050;-73
2022/12/18 00:46:01;;;;;;;111.88;39.78;;;;;;;;;;5086932;27;20046;-73
2022/12/18 00:48:27;;;;;;;114.85;37.97;;;;;;;;;;5097853;27;20035;-73
2022/12/18 00:50:53;;;;;;;103.47;33.40;;;;;;;;;;5094277;27;20532;-73
2022/12/18 00:53:19;;;;;;;81.28;31.15;;;;;;;;;;5114461;27;20035;-73
2022/12/18 00:55:46;;;;;;;84.28;30.33;;;;;;;;;;5089461;27;22250;-73
2022/12/18 00:58:13;;;;;;;102.10;35.65;;;;;;;;;;5073676;27;20035;-73
2022/12/18 01:00:39;;;;;;;73.47;28.35;;;;;;;;;;5082012;27;20530;-73
2022/12/18 01:03:05;;;;;;;73.85;26.42;;;;;;;;;;5083962;27;20047;-73
2022/12/18 01:05:32;;;;;;;81.22;30.52;;;;;;;;;;5090932;27;20115;-73
2022/12/18 01:07:58;;;;;;;93.35;31.20;;;;;;;;;;5090760;27;20042;-73
2022/12/18 01:10:24;;;;;;;78.38;27.92;;;;;;;;;;5096786;27;20043;-73
2022/12/18 01:12:50;;;;;;;79.75;29.27;;;;;;;;;;5095978;27;20054;-73
2022/12/18 01:15:17;;;;;;;54.72;22.38;;;;;;;;;;5094718;27;20043;-72
2022/12/18 01:17:43;;;;;;;101.68;35.53;;;;;;;;;;5081959;27;20046;-73
2022/12/18 01:20:10;;;;;;;92.05;31.65;;;;;;;;;;5096135;27;20051;-73
2022/12/18 01:22:36;;;;;;;94.70;33.40;;;;;;;;;;5119069;27;20589;-73
2022/12/18 01:25:04;;;;;;;105.88;35.70;;;;;;;;;;5093385;27;20177;-73
2022/12/18 01:27:30;;;;;;;109.55;39.67;;;;;;;;;;5081601;27;20039;-73
2022/12/18 01:29:56;;;;;;;111.68;38.72;;;;;;;;;;5100528;27;20487;-73
2022/12/18 01:32:22;;;;;;;101.30;37.58;;;;;;;;;;5114750;27;20034;-73
2022/12/18 01:34:48;;;;;;;115.07;40.65;;;;;;;;;;5098693;27;20043;-73
2022/12/18 01:37:15;;;;;;;106.82;37.72;;;;;;;;;;5083025;27;20077;-74
2022/12/18 01:39:41;;;;;;;110.88;38.08;;;;;;;;;;5094488;27;20051;-74
2022/12/18 01:42:12;;;;;;;99.28;33.78;;;;;;;;;;5100241;27;21911;-73
2022/12/18 01:44:57;;;;;;;80.20;28.35;;;;;;;;;;5098994;27;20043;-74
2022/12/18 01:47:26;;;;;;;85.82;27.48;;;;;;;;;;5101953;27;20077;-73
2022/12/18 01:49:52;;;;;;;87.68;33.63;;;;;;;;;;5106257;27;20042;-73
2022/12/18 01:52:19;;;;;;;98.30;36.08;;;;;;;;;;5082410;27;20047;-73
2022/12/18 01:54:45;;;;;;;77.68;30.48;;;;;;;;;;5098681;27;20075;-73
2022/12/18 01:57:11;;;;;;;106.55;37.17;;;;;;;;;;5115147;27;20127;-74
2022/12/18 01:59:38;;;;;;;95.85;35.33;;;;;;;;;;5090180;27;20039;-74
2022/12/18 02:02:04;;;;;;;107.38;37.03;;;;;;;;;;5100735;27;20540;-74
2022/12/18 02:04:30;;;;;;;93.72;35.33;;;;;;;;;;5104873;27;20053;-73
2022/12/18 02:07:01;;;;;;;99.30;34.88;;;;;;;;;;5105249;27;20035;-73
2022/12/18 02:09:53;;;;;;;108.10;37.20;;;;;;;;;;5106454;27;20039;-73
2022/12/18 02:12:24;;;;;;;108.00;34.90;;;;;;;;;;5100715;27;20047;-73
2022/12/18 02:14:50;;;;;;;97.85;36.10;;;;;;;;;;5102269;27;20043;-73
2022/12/18 02:17:19;;;;;;;118.70;35.25;;;;;;;;;;5103029;27;20510;-74
2022/12/18 02:19:48;;;;;;;96.20;33.83;;;;;;;;;;5089706;27;21019;-73
2022/12/18 02:22:20;;;;;;;91.57;31.27;;;;;;;;;;5102261;27;20138;-74
2022/12/18 02:24:59;;;;;;;92.45;34.47;;;;;;;;;;5101835;27;20039;-73
2022/12/18 02:27:25;;;;;;;101.95;37.33;;;;;;;;;;5088077;27;20074;-73
2022/12/18 02:29:52;;;;;;;98.35;34.95;;;;;;;;;;5100147;27;20072;-73
2022/12/18 02:32:24;;;;;;;100.15;36.90;;;;;;;;;;5086425;27;20131;-73
2022/12/18 02:34:51;;;;;;;104.20;34.78;;;;;;;;;;5089197;27;20134;-74
2022/12/18 02:37:18;;;;;;;105.07;37.67;;;;;;;;;;5090998;27;20115;-74
2022/12/18 02:39:46;;;;;;;100.28;33.03;;;;;;;;;;5079875;27;20042;-74
2022/12/18 02:42:13;;;;;;;100.05;35.85;;;;;;;;;;5090192;27;20114;-74
2022/12/18 02:44:44;;;;;;;107.30;36.03;;;;;;;;;;5085074;27;20046;-74
2022/12/18 02:47:12;;;;;;;111.50;37.05;;;;;;;;;;5085816;27;23006;-73
2022/12/18 02:49:48;;;;;;;107.28;35.97;;;;;;;;;;5091456;27;20043;-74
2022/12/18 02:52:32;;;;;;;111.97;35.92;;;;;;;;;;5097649;27;20050;-74
2022/12/18 02:55:01;;;;;;;105.28;35.05;;;;;;;;;;5096465;27;20087;-74
2022/12/18 02:57:30;;;;;;;112.47;37.35;;;;;;;;;;5094893;27;20182;-73
2022/12/18 02:59:59;;;;;;;99.97;36.53;;;;;;;;;;5099685;27;20074;-74
2022/12/18 03:02:38;;;;;;;102.93;35.22;;;;;;;;;;5096207;27;20042;-73
2022/12/18 03:05:10;;;;;;;104.70;36.10;;;;;;;;;;5095805;27;20052;-73
2022/12/18 03:07:59;;;;;;;117.72;38.38;;;;;;;;;;5097908;27;20038;-73
2022/12/18 03:10:28;;;;;;;122.07;42.00;;;;;;;;;;5077307;27;20055;-74
2022/12/18 03:12:59;;;;;;;118.70;38.67;;;;;;;;;;5098652;27;20043;-74
2022/12/18 03:15:28;;;;;;;114.22;36.00;;;;;;;;;;5097838;27;20190;-74
2022/12/18 03:18:02;;;;;;;128.27;41.17;;;;;;;;;;5113571;27;20042;-73
2022/12/18 03:20:30;;;;;;;134.35;43.67;;;;;;;;;;5097386;27;20093;-73
2022/12/18 03:23:00;;;;;;;128.40;43.75;;;;;;;;;;5097037;27;20035;-73
2022/12/18 03:25:27;;;;;;;136.82;43.95;;;;;;;;;;5096933;27;20177;-73
2022/12/18 03:27:57;;;;;;;141.02;43.80;;;;;;;;;;5095505;27;20050;-73
2022/12/18 03:30:23;;;;;;;138.85;45.67;;;;;;;;;;5094286;27;20061;-73
2022/12/18 03:32:57;;;;;;;135.48;43.20;;;;;;;;;;5090328;27;20047;-73
2022/12/18 03:35:26;;;;;;;137.32;42.53;;;;;;;;;;5098309;27;20138;-73
2022/12/18 03:37:53;;;;;;;137.25;45.08;;;;;;;;;;5094911;27;20150;-73
2022/12/18 03:40:20;;;;;;;133.65;42.85;;;;;;;;;;5085266;27;20043;-73
2022/12/18 03:42:58;;;;;;;133.57;46.13;;;;;;;;;;5096627;27;20046;-74
2022/12/18 03:45:28;;;;;;;128.43;42.45;;;;;;;;;;5099257;27;20504;-74
2022/12/18 03:47:59;;;;;;;130.52;43.60;;;;;;;;;;5094043;27;20164;-74
2022/12/18 03:50:44;;;;;;;117.93;43.67;;;;;;;;;;5098717;27;20039;-74
2022/12/18 03:53:29;;;;;;;110.40;37.65;;;;;;;;;;5096240;27;20166;-74
2022/12/18 03:55:56;;;;;;;112.57;38.05;;;;;;;;;;5098051;27;20039;-74
2022/12/18 03:58:25;;;;;;;116.72;41.28;;;;;;;;;;5091597;27;21297;-74
2022/12/18 04:00:52;;;;;;;108.38;40.38;;;;;;;;;;5095553;27;20082;-74
2022/12/18 04:03:19;;;;;;;123.13;40.88;;;;;;;;;;5088100;27;20138;-74
2022/12/18 04:05:47;;;;;;;109.80;42.22;;;;;;;;;;5095326;27;20057;-74
2022/12/18 04:08:14;;;;;;;113.15;42.50;;;;;;;;;;5091532;27;20177;-74
2022/12/18 04:10:40;;;;;;;104.72;39.35;;;;;;;;;;5097179;27;20043;-74
2022/12/18 04:13:06;;;;;;;97.28;34.90;;;;;;;;;;5097407;27;20039;-74
2022/12/18 04:15:35;;;;;;;112.45;41.35;;;;;;;;;;5095122;27;20127;-74
2022/12/18 04:18:01;;;;;;;104.70;37.55;;;;;;;;;;5093752;27;20071;-74
2022/12/18 04:20:27;;;;;;;105.65;37.75;;;;;;;;;;5081076;27;20053;-74
2022/12/18 04:22:53;;;;;;;107.18;39.80;;;;;;;;;;5092438;27;20035;-74
2022/12/18 04:25:19;;;;;;;105.00;39.50;;;;;;;;;;5078891;27;20038;-74
2022/12/18 04:27:45;;;;;;;108.00;38.22;;;;;;;;;;5081354;27;20043;-74
2022/12/18 04:30:12;;;;;;;108.85;40.58;;;;;;;;;;5095295;27;20145;-74
2022/12/18 04:32:38;;;;;;;102.38;39.03;;;;;;;;;;5092302;27;20166;-74
2022/12/18 04:35:06;;;;;;;109.43;39.90;;;;;;;;;;5093265;27;20043;-74
2022/12/18 04:37:32;;;;;;;108.40;39.65;;;;;;;;;;5092416;27;20137;-74
2022/12/18 04:39:58;;;;;;;105.97;39.83;;;;;;;;;;5076724;27;21957;-74
2022/12/18 04:42:24;;;;;;;116.60;39.58;;;;;;;;;;5076715;27;20043;-74
2022/12/18 04:44:50;;;;;;;100.63;38.70;;;;;;;;;;5091480;27;20043;-74
2022/12/18 04:47:16;;;;;;;111.30;41.28;;;;;;;;;;5079721;27;20134;-74
2022/12/18 04:49:42;;;;;;;115.90;40.15;;;;;;;;;;5094945;27;20126;-74
2022/12/18 04:52:08;;;;;;;97.65;38.13;;;;;;;;;;5110311;27;20153;-74
2022/12/18 04:54:34;;;;;;;103.15;38.60;;;;;;;;;;5093323;27;20501;-74
2022/12/18 04:57:00;;;;;;;98.50;36.83;;;;;;;;;;5092502;27;20034;-74
2022/12/18 04:59:27;;;;;;;110.53;42.03;;;;;;;;;;5091348;27;20066;-74
2022/12/18 05:01:53;;;;;;;102.32;38.22;;;;;;;;;;5095512;27;20161;-73
2022/12/18 05:04:19;;;;;;;104.18;39.60;;;;;;;;;;5095535;27;20087;-73
2022/12/18 05:06:45;;;;;;;96.70;37.25;;;;;;;;;;5095641;27;20103;-74
2022/12/18 05:09:11;;;;;;;99.40;36.72;;;;;;;;;;5092005;27;20035;-73
2022/12/18 05:11:37;;;;;;;88.43;36.03;;;;;;;;;;5113333;27;20051;-74
2022/12/18 05:14:03;;;;;;;83.40;35.47;;;;;;;;;;5095138;27;20214;-73
2022/12/18 05:16:29;;;;;;;89.40;35.47;;;;;;;;;;5081175;27;20047;-73
2022/12/18 05:18:55;;;;;;;94.75;35.22;;;;;;;;;;5074167;27;20046;-73
2022/12/18 05:21:21;;;;;;;76.80;31.40;;;;;;;;;;5081094;27;20070;-74
2022/12/18 05:23:47;;;;;;;82.82;31.35;;;;;;;;;;5096670;27;20077;-74
2022/12/18 05:26:16;;;;;;;67.22;28.38;;;;;;;;;;5113593;27;21211;-74
2022/12/18 05:28:42;;;;;;;75.65;29.48;;;;;;;;;;5099519;27;20058;-74
2022/12/18 05:31:08;;;;;;;75.10;30.42;;;;;;;;;;5114598;27;20047;-74
2022/12/18 05:33:35;;;;;;;76.90;31.08;;;;;;;;;;5102351;27;20034;-74
2022/12/18 05:36:01;;;;;;;74.95;30.33;;;;;;;;;;5099908;27;20785;-73
2022/12/18 05:38:28;;;;;;;73.78;29.85;;;;;;;;;;5102003;27;20047;-73
2022/12/18 05:40:54;;;;;;;73.00;29.58;;;;;;;;;;5101190;27;20034;-73
2022/12/18 05:43:21;;;;;;;81.55;30.35;;;;;;;;;;5118780;27;20071;-73
2022/12/18 05:45:47;;;;;;;81.15;31.33;;;;;;;;;;5086053;27;20054;-74
2022/12/18 05:48:13;;;;;;;71.07;30.05;;;;;;;;;;5100828;27;20039;-74
2022/12/18 05:50:40;;;;;;;73.72;31.38;;;;;;;;;;5098276;27;20070;-73
2022/12/18 05:53:07;;;;;;;66.57;27.38;;;;;;;;;;5094124;27;20043;-73
2022/12/18 05:55:34;;;;;;;63.70;26.83;;;;;;;;;;5099552;27;20047;-73
2022/12/18 05:58:00;;;;;;;63.65;26.67;;;;;;;;;;5101954;27;20394;-73
2022/12/18 06:00:26;;;;;;;59.35;27.55;;;;;;;;;;5102388;27;20491;-73
2022/12/18 06:02:52;;;;;;;61.17;28.00;;;;;;;;;;5100974;27;20077;-73
2022/12/18 06:05:18;;;;;;;60.35;27.35;;;;;;;;;;5088732;27;20497;-73
2022/12/18 06:07:44;;;;;;;67.15;27.05;;;;;;;;;;5089392;27;20563;-73
2022/12/18 06:10:11;;;;;;;59.15;26.65;;;;;;;;;;5102399;27;20043;-73
2022/12/18 06:12:37;;;;;;;59.85;25.85;;;;;;;;;;5101328;27;20072;-73
2022/12/18 06:15:04;;;;;;;62.58;27.50;;;;;;;;;;5104598;27;20043;-73
2022/12/18 06:17:31;;;;;;;54.40;23.52;;;;;;;;;;5066513;27;20099;-73
2022/12/18 06:19:57;;;;;;;60.75;25.23;;;;;;;;;;5096600;27;20046;-73
2022/12/18 06:22:23;;;;;;;60.30;26.05;;;;;;;;;;5098799;27;20054;-73
2022/12/18 06:24:49;;;;;;;60.70;26.33;;;;;;;;;;5095507;27;20046;-73
2022/12/18 06:27:15;;;;;;;57.58;25.52;;;;;;;;;;5079201;27;20039;-73
2022/12/18 06:29:42;;;;;;;62.47;25.42;;;;;;;;;;5092518;27;20050;-73
2022/12/18 06:32:08;;;;;;;58.17;27.02;;;;;;;;;;5094373;27;20496;-73
2022/12/18 06:34:34;;;;;;;57.53;24.27;;;;;;;;;;5093811;27;20039;-73
2022/12/18 06:37:00;;;;;;;56.13;26.02;;;;;;;;;;5113720;27;20070;-73
2022/12/18 06:39:30;;;;;;;54.22;25.00;;;;;;;;;;5081908;27;20127;-73
2022/12/18 06:41:56;;;;;;;55.83;25.40;;;;;;;;;;5091014;27;20047;-73
2022/12/18 06:44:22;;;;;;;55.92;24.90;;;;;;;;;;5095314;27;20497;-73
2022/12/18 06:46:48;;;;;;;68.47;28.23;;;;;;;;;;5092631;27;21598;-73
2022/12/18 06:49:15;;;;;;;55.22;26.92;;;;;;;;;;5089943;27;20043;-73
2022/12/18 06:51:42;;;;;;;48.80;22.35;;;;;;;;;;5083220;27;20054;-73
2022/12/18 06:54:08;;;;;;;58.53;25.67;;;;;;;;;;5094027;27;20077;-73
2022/12/18 06:56:34;;;;;;;59.00;24.27;;;;;;;;;;5096687;27;20043;-73
2022/12/18 06:59:00;;;;;;;59.08;24.70;;;;;;;;;;5094513;27;20047;-73
2022/12/18 07:01:27;;;;;;;56.22;26.23;;;;;;;;;;5092746;27;20082;-73
2022/12/18 07:03:54;;;;;;;55.80;23.50;;;;;;;;;;5095348;27;20049;-73
2022/12/18 07:06:21;;;;;;;54.70;26.23;;;;;;;;;;5098694;27;20570;-73
2022/12/18 07:08:48;;;;;;;53.67;23.90;;;;;;;;;;5081014;27;20182;-73
2022/12/18 07:11:14;;;;;;;56.08;26.10;;;;;;;;;;5094624;27;20043;-73
2022/12/18 07:13:41;;;;;;;49.72;21.73;;;;;;;;;;5095729;27;20096;-72
2022/12/18 07:16:08;;;;;;;52.42;23.50;;;;;;;;;;5095073;27;20084;-73
2022/12/18 07:18:34;;;;;;;51.15;23.40;;;;;;;;;;5112135;27;20042;-72
2022/12/18 07:21:04;;;;;;;50.63;24.05;;;;;;;;;;5083676;27;20065;-73
2022/12/18 07:23:32;;;;;;;53.45;23.27;;;;;;;;;;5096875;27;20053;-72
2022/12/18 07:26:01;;;;;;;42.80;22.13;;;;;;;;;;5092933;27;20129;-72
2022/12/18 07:28:27;;;;;;;48.05;22.30;;;;;;;;;;5086079;27;21064;-72
2022/12/18 07:30:53;;;;;;;49.70;22.05;;;;;;;;;;5098562;27;20477;-72
2022/12/18 07:33:19;;;;;;;48.28;23.77;;;;;;;;;;5109421;27;20146;-73
2022/12/18 07:35:45;;;;;;;44.10;20.88;;;;;;;;;;5102228;27;20059;-73
2022/12/18 07:38:12;;;;;;;42.10;20.83;;;;;;;;;;5084719;27;20042;-73
2022/12/18 07:40:38;;;;;;;44.05;20.83;;;;;;;;;;5104448;27;20229;-73
2022/12/18 07:43:04;;;;;;;44.60;21.40;;;;;;;;;;5104407;27;20051;-72
2022/12/18 07:45:30;;;;;;;41.83;19.77;;;;;;;;;;5106404;27;20439;-72
2022/12/18 07:47:56;;;;;;;48.97;23.13;;;;;;;;;;5101758;27;20175;-72
2022/12/18 07:50:23;;;;;;;45.10;20.25;;;;;;;;;;5100331;27;20042;-74
2022/12/18 07:52:49;;;;;;;41.53;21.40;;;;;;;;;;5118102;27;20099;-72
2022/12/18 07:55:15;;;;;;;39.83;19.65;;;;;;;;;;5099614;27;20043;-73
2022/12/18 07:57:41;;;;;;;44.38;21.13;;;;;;;;;;5099087;27;20035;-72
2022/12/18 08:00:08;;;;;;;45.00;21.27;;;;;;;;;;5099641;27;20043;-75
2022/12/18 08:02:34;;;;;;;40.10;19.10;;;;;;;;;;5099151;27;20054;-72
2022/12/18 08:05:00;;;;;;;45.05;20.65;;;;;;;;;;5096466;27;20095;-73
2022/12/18 08:07:26;;;;;;;44.17;21.88;;;;;;;;;;5098939;27;20070;-73
2022/12/18 08:09:52;;;;;;;37.60;20.20;;;;;;;;;;5097282;27;20535;-73
2022/12/18 08:12:18;;;;;;;38.63;19.55;;;;;;;;;;5098429;27;20043;-73
2022/12/18 08:14:44;;;;;;;38.55;20.58;;;;;;;;;;5097454;27;20043;-73
2022/12/18 08:17:10;;;;;;;40.42;21.88;;;;;;;;;;5098689;27;20035;-74
2022/12/18 08:19:36;;;;;;;41.80;19.70;;;;;;;;;;5094466;27;20045;-74
2022/12/18 08:22:02;;;;;;;42.13;20.23;;;;;;;;;;5099056;27;20047;-74
2022/12/18 08:24:28;;;;;;;35.80;18.65;;;;;;;;;;5094490;27;20057;-73
2022/12/18 08:26:56;;;;;;;35.72;18.83;;;;;;;;;;5097663;27;20050;-73
2022/12/18 08:29:23;;;;;;;41.35;20.38;;;;;;;;;;5098552;27;20395;-73
2022/12/18 08:31:49;;;;;;;38.15;18.27;;;;;;;;;;5094314;27;20054;-73
2022/12/18 08:34:16;;;;;;;36.00;19.08;;;;;;;;;;5097226;27;20108;-74
2022/12/18 08:36:42;;;;;;;40.50;20.02;;;;;;;;;;5082133;27;20069;-74
2022/12/18 08:39:08;;;;;;;42.88;20.00;;;;;;;;;;5117124;27;20146;-72
2022/12/18 08:41:34;;;;;;;35.25;18.30;;;;;;;;;;5064329;27;20050;-73
2022/12/18 08:46:48;;;;;;;32.20;18.13;;;;;;;;;;5093291;27;20062;-74
2022/12/18 08:49:14;;;;;;;31.92;16.67;;;;;;;;;;5083033;27;20042;-74
2022/12/18 08:51:40;;;;;;;39.15;19.30;;;;;;;;;;5091483;27;20098;-74
2022/12/18 08:54:07;;;;;;;34.97;17.67;;;;;;;;;;5099579;27;20043;-74
2022/12/18 08:56:33;;;;;;;35.25;18.38;;;;;;;;;;5110106;27;20047;-74
2022/12/18 08:59:00;;;;;;;37.72;19.27;;;;;;;;;;5071428;27;20449;-74
2022/12/18 09:01:26;;;;;;;34.70;19.00;;;;;;;;;;5112791;27;20058;-75
2022/12/18 09:03:52;;;;;;;37.92;19.40;;;;;;;;;;5095243;27;20046;-72
2022/12/18 09:06:19;;;;;;;42.33;17.75;;;;;;;;;;5078906;27;20039;-72
2022/12/18 09:08:45;;;;;;;50.20;25.35;;;;;;;;;;5073114;27;20104;-72
2022/12/18 09:11:18;;;;;;;28.80;17.02;;;;;;;;;;5084213;27;20046;-72
2022/12/18 09:13:44;;;;;;;33.80;16.98;;;;;;;;;;5089926;27;20111;-72
2022/12/18 09:16:10;;;;;;;33.67;17.80;;;;;;;;;;5098228;27;20919;-72
2022/12/18 09:18:36;;;;;;;30.50;16.10;;;;;;;;;;5095675;27;21950;-72
2022/12/18 09:21:29;;;;;;;30.98;16.55;;;;;;;;;;5080500;27;20988;-72
2022/12/18 09:23:56;;;;;;;31.15;17.13;;;;;;;;;;5076691;27;20165;-73
2022/12/18 09:26:23;;;;;;;31.60;16.38;;;;;;;;;;5079382;27;20138;-75
2022/12/18 09:28:49;;;;;;;32.60;16.27;;;;;;;;;;5089717;27;20043;-75
2022/12/18 09:31:15;;;;;;;31.42;16.02;;;;;;;;;;5090266;27;20043;-76
2022/12/18 09:33:41;;;;;;;28.52;15.25;;;;;;;;;;5077559;27;20088;-76
2022/12/18 09:36:08;;;;;;;29.73;15.15;;;;;;;;;;5093459;28;20073;-75
2022/12/18 09:38:35;;;;;;;27.90;15.15;;;;;;;;;;5094377;28;20586;-75
2022/12/18 09:41:05;;;;;;;29.25;16.08;;;;;;;;;;5096359;28;20042;-73
2022/12/18 09:43:49;;;;;;;27.33;15.98;;;;;;;;;;5078187;28;20048;-71
2022/12/18 09:46:19;;;;;;;27.85;15.35;;;;;;;;;;5081844;28;20732;-73
2022/12/18 09:48:48;;;;;;;23.42;14.65;;;;;;;;;;5088879;27;20491;-71
2022/12/18 09:51:20;;;;;;;42.03;23.92;;;;;;;;;;5083019;28;20043;-74
2022/12/18 09:53:57;;;;;;;35.38;20.10;;;;;;;;;;5085500;28;20079;-74
2022/12/18 09:56:24;;;;;;;32.85;18.95;;;;;;;;;;5072123;28;20069;-74
2022/12/18 09:58:55;;;;;;;24.98;14.68;;;;;;;;;;5074808;28;20077;-75
2022/12/18 10:01:22;;;;;;;24.45;14.98;;;;;;;;;;5076943;28;20082;-73
2022/12/18 10:03:49;;;;;;;27.05;15.20;;;;;;;;;;5095566;28;20640;-73
2022/12/18 10:06:21;;;;;;;26.48;14.80;;;;;;;;;;5083190;27;20053;-73
2022/12/18 10:08:57;;;;;;;24.27;13.55;;;;;;;;;;5100646;27;20499;-72
2022/12/18 10:11:41;;;;;;;21.83;13.65;;;;;;;;;;5099760;27;20183;-73
2022/12/18 10:14:10;;;;;;;23.25;15.43;;;;;;;;;;5101383;27;20125;-73
2022/12/18 10:16:47;;;;;;;21.77;14.25;;;;;;;;;;5102089;27;20058;-73
2022/12/18 10:19:13;;;;;;;25.98;14.93;;;;;;;;;;5101345;27;20746;-73
2022/12/18 10:21:49;;;;;;;26.98;16.83;;;;;;;;;;5100954;27;20047;-73
2022/12/18 10:24:24;;;;;;;17.85;11.18;;;;;;;;;;5098816;27;20031;-74
2022/12/18 10:26:50;;;;;;;22.33;10.63;;;;;;;;;;5101959;27;20072;-74
2022/12/18 10:29:17;;;;;;;19.60;12.30;;;;;;;;;;5100067;27;20042;-74
2022/12/18 10:31:43;;;;;;;35.92;23.88;;;;;;;;;;5101965;27;20051;-74
2022/12/18 10:34:13;;;;;;;17.60;11.30;;;;;;;;;;5083585;27;20039;-76
2022/12/18 10:36:39;;;;;;;17.95;10.57;;;;;;;;;;5093605;27;20047;-75
2022/12/18 10:39:15;;;;;;;12.88;8.75;;;;;;;;;;5093475;27;20066;-76
2022/12/18 10:41:41;;;;;;;14.48;9.25;;;;;;;;;;5096710;27;20414;-75
2022/12/18 10:44:18;;;;;;;16.02;8.90;;;;;;;;;;5095975;27;20756;-75
2022/12/18 10:46:46;;;;;;;13.55;9.23;;;;;;;;;;5093594;27;20042;-76
2022/12/18 10:49:29;;;;;;;13.82;9.07;;;;;;;;;;5093244;27;20168;-75
2022/12/18 10:52:24;;;;;;;16.50;9.50;;;;;;;;;;5094629;27;20063;-75
2022/12/18 10:55:05;;;;;;;14.27;8.68;;;;;;;;;;5067874;27;20051;-75
2022/12/18 10:57:35;;;;;;;15.73;10.52;;;;;;;;;;5096921;27;20040;-75
2022/12/18 11:00:20;;;;;;;15.02;10.15;;;;;;;;;;5089002;27;20123;-75
2022/12/18 11:02:46;;;;;;;14.68;8.90;;;;;;;;;;5094253;27;20569;-76
2022/12/18 11:05:32;;;;;;;12.45;8.40;;;;;;;;;;5094104;27;20444;-76
2022/12/18 11:07:59;;;;;;;16.13;9.07;;;;;;;;;;5095573;27;20147;-76
2022/12/18 11:10:33;;;;;;;14.68;8.80;;;;;;;;;;5082824;27;20113;-75
2022/12/18 11:13:17;;;;;;;15.10;9.25;;;;;;;;;;5088366;27;20035;-76
2022/12/18 11:15:43;;;;;;;14.35;8.63;;;;;;;;;;5088496;27;20043;-75
2022/12/18 11:18:28;;;;;;;13.82;8.88;;;;;;;;;;5074126;27;20235;-75
2022/12/18 11:20:57;;;;;;;14.30;8.82;;;;;;;;;;5081634;27;20047;-75
2022/12/18 11:23:23;;;;;;;14.52;9.50;;;;;;;;;;5079538;27;20057;-75
2022/12/18 11:25:54;;;;;;;23.40;16.10;;;;;;;;;;5092427;27;20172;-75
2022/12/18 11:28:35;;;;;;;39.83;23.17;;;;;;;;;;5092761;27;20039;-73
2022/12/18 11:31:19;;;;;;;57.58;32.72;;;;;;;;;;5093319;27;20051;-77
2022/12/18 11:33:47;;;;;;;36.97;20.25;;;;;;;;;;5096380;27;20042;-76
2022/12/18 11:36:15;;;;;;;69.30;31.13;;;;;;;;;;5105592;27;20051;-76
2022/12/18 11:38:42;;;;;;;29.80;18.90;;;;;;;;;;5095898;27;20047;-74
2022/12/18 11:41:19;;;;;;;16.30;10.90;;;;;;;;;;5097539;27;20130;-75
2022/12/18 11:44:00;;;;;;;14.32;9.10;;;;;;;;;;5094953;27;20134;-75
2022/12/18 11:46:38;;;;;;;14.73;9.25;;;;;;;;;;5095651;27;20076;-75
2022/12/18 11:49:08;;;;;;;13.65;8.32;;;;;;;;;;5095653;27;20046;-75
2022/12/18 11:51:37;;;;;;;12.43;7.22;;;;;;;;;;5085312;27;20146;-75
2022/12/18 11:54:13;;;;;;;11.70;8.63;;;;;;;;;;5096650;27;20138;-75
2022/12/18 11:56:59;;;;;;;14.18;7.00;;;;;;;;;;5079918;27;20042;-75
2022/12/18 11:59:52;;;;;;;10.90;6.88;;;;;;;;;;5094291;27;20047;-75
2022/12/18 12:02:30;;;;;;;11.52;7.85;;;;;;;;;;5094439;27;20082;-76
2022/12/18 12:05:12;;;;;;;11.45;7.03;;;;;;;;;;5096293;27;20122;-76
2022/12/18 12:07:51;;;;;;;13.30;7.13;;;;;;;;;;5081148;27;20432;-75
2022/12/18 12:10:17;;;;;;;9.35;6.07;;;;;;;;;;5095098;27;21799;-75
2022/12/18 12:12:46;;;;;;;11.88;7.25;;;;;;;;;;5098231;27;20049;-76
2022/12/18 12:15:12;;;;;;;10.90;6.18;;;;;;;;;;5114015;27;20043;-76
2022/12/18 12:17:44;;;;;;;9.35;6.28;;;;;;;;;;5095756;27;20257;-77
2022/12/18 12:20:13;;;;;;;10.85;6.53;;;;;;;;;;5095627;27;21213;-78
2022/12/18 12:22:39;;;;;;;12.65;6.95;;;;;;;;;;5081312;27;20119;-77
2022/12/18 12:25:05;;;;;;;11.30;7.38;;;;;;;;;;5080135;27;20189;-77
2022/12/18 12:27:34;;;;;;;10.38;6.45;;;;;;;;;;5096293;27;20063;-77
2022/12/18 12:30:09;;;;;;;10.40;7.32;;;;;;;;;;5095250;27;20035;-77
2022/12/18 12:32:35;;;;;;;;;;;;;;;;;;5097521;27;20410;-77
2022/12/18 12:35:07;;;;;;;15.25;7.85;;;;;;;;;;5095930;27;19931;-76
2022/12/18 12:37:41;;;;;;;11.15;7.43;;;;;;;;;;5101335;27;21020;-76
2022/12/18 12:40:08;;;;;;;13.38;9.00;;;;;;;;;;5093483;27;20043;-76
2022/12/18 12:45:34;;;;;;;41.28;22.38;;;;;;;;;;5097517;27;20050;-75
2022/12/18 12:48:02;;;;;;;41.03;20.73;;;;;;;;;;5096159;27;20097;-76
2022/12/18 12:50:28;;;;;;;24.10;15.02;;;;;;;;;;5093295;27;20043;-75
2022/12/18 12:52:56;;;;;;;18.65;11.40;;;;;;;;;;5079877;27;20043;-75
2022/12/18 12:55:27;;;;;;;15.40;9.63;;;;;;;;;;5096571;27;20035;-74
2022/12/18 12:58:12;;;;;;;12.32;7.70;;;;;;;;;;5095852;27;20043;-74
2022/12/18 13:01:04;;;;;;;10.45;6.60;;;;;;;;;;5095823;27;20913;-74
2022/12/18 13:03:50;;;;;;;8.80;6.28;;;;;;;;;;5058416;27;20046;-74
2022/12/18 13:06:24;;;;;;;11.82;7.65;;;;;;;;;;5095152;27;20057;-74
2022/12/18 13:08:53;;;;;;;13.90;7.43;;;;;;;;;;5093200;27;20082;-75
2022/12/18 13:14:37;;;;;;;14.30;8.65;;;;;;;;;;5091426;27;20133;-75
2022/12/18 13:17:23;;;;;;;16.95;8.82;;;;;;;;;;5097001;27;20134;-74
2022/12/18 13:20:07;;;;;;;14.45;7.25;;;;;;;;;;5089756;27;20056;-74
2022/12/18 13:22:36;;;;;;;13.73;8.90;;;;;;;;;;5096263;27;20050;-75
2022/12/18 13:25:02;;;;;;;15.27;9.15;;;;;;;;;;5081824;27;20092;-75
2022/12/18 13:27:40;;;;;;;14.90;8.98;;;;;;;;;;5098391;27;20128;-75
2022/12/18 13:30:33;;;;;;;12.65;8.02;;;;;;;;;;5098474;27;20145;-75
2022/12/18 13:33:14;;;;;;;12.68;8.20;;;;;;;;;;5074124;27;20039;-75
2022/12/18 13:35:42;;;;;;;11.32;7.95;;;;;;;;;;5085005;27;20046;-74
2022/12/18 13:38:26;;;;;;;16.00;9.18;;;;;;;;;;5082621;27;20043;-75
2022/12/18 13:40:52;;;;;;;;;;;;;;;;;;5095226;27;20039;-74
2022/12/18 13:43:21;;;;;;;15.85;9.00;;;;;;;;;;5083899;27;19966;-75
2022/12/18 13:46:18;;;;;;;15.15;8.25;;;;;;;;;;5100519;27;21180;-74
2022/12/18 13:48:49;;;;;;;13.93;9.05;;;;;;;;;;5098781;27;20250;-75
2022/12/18 13:51:17;;;;;;;15.77;9.35;;;;;;;;;;5101369;27;20043;-75
2022/12/18 13:53:50;;;;;;;17.23;10.07;;;;;;;;;;5096638;27;20506;-75
2022/12/18 13:56:22;;;;;;;15.95;10.02;;;;;;;;;;5100044;27;20084;-74
2022/12/18 13:59:12;;;;;;;18.17;10.63;;;;;;;;;;5096169;27;20050;-74
2022/12/18 14:01:42;;;;;;;15.93;10.38;;;;;;;;;;5097181;27;20047;-75
2022/12/18 14:04:19;;;;;;;17.42;10.55;;;;;;;;;;5113968;27;20043;-74
2022/12/18 14:06:46;;;;;;;17.42;10.60;;;;;;;;;;5079712;27;20046;-74
2022/12/18 14:09:21;;;;;;;19.20;9.63;;;;;;;;;;5118206;27;20058;-74
2022/12/18 14:11:49;;;;;;;17.70;11.45;;;;;;;;;;5097598;27;20099;-74
2022/12/18 14:14:16;;;;;;;20.20;11.23;;;;;;;;;;5097897;27;20047;-75
2022/12/18 14:16:42;;;;;;;14.88;9.20;;;;;;;;;;5086251;27;20076;-75
2022/12/18 14:19:12;;;;;;;18.45;11.82;;;;;;;;;;5084521;27;20048;-75
2022/12/18 14:21:38;;;;;;;15.00;9.55;;;;;;;;;;5101879;27;20053;-75
2022/12/18 14:24:06;;;;;;;17.20;9.90;;;;;;;;;;5097801;27;20038;-75
2022/12/18 14:26:33;;;;;;;18.30;10.02;;;;;;;;;;5095730;27;20058;-75
2022/12/18 14:29:04;;;;;;;16.50;10.07;;;;;;;;;;5094886;27;20046;-75
2022/12/18 14:31:31;;;;;;;15.73;9.85;;;;;;;;;;5100454;27;20043;-75
2022/12/18 14:33:58;;;;;;;15.77;10.38;;;;;;;;;;5080900;27;20038;-75
2022/12/18 14:36:25;;;;;;;15.25;9.38;;;;;;;;;;5075488;27;20447;-74
2022/12/18 14:38:53;;;;;;;17.38;10.30;;;;;;;;;;5089909;27;20047;-74